sensor_id;sensor_type;location;lat;lon;timestamp;P1;durP1;ratioP1;P2;durP2;ratioP2
8927;SDS011;4499;48.304;11.902;2022-12-18T00:00:09;130.73;;;43.33;;
8927;SDS011;4499;48.304;11.902;2022-12-18T00:02:40;120.07;;;43.03;;
8927;SDS011;4499;48.304;11.902;2022-12-18T00:05:10;148.80;;;43.90;;
8927;SDS011;4499;48.304;11.902;2022-12-18T00:07:39;132.73;;;43.20;;
8927;SDS011;4499;48.304;11.902;2022-12-18T00:10:07;123.90;;;41.87;;
8927;SDS011;4499;48.304;11.902;2022-12-18T00:12:40;150.83;;;41.50;;
8927;SDS011;4499;48.304;11.902;2022-12-18T00:15:13;112.40;;;41.83;;
8927;SDS011;4499;48.304;11.902;2022-12-18T00:17:41;148.97;;;41.20;;
8927;SDS011;4499;48.304;11.902;2022-12-18T00:20:09;113.40;;;39.23;;
8927;SDS011;4499;48.304;11.902;2022-12-18T00:22:39;169.17;;;42.57;;
8927;SDS011;4499;48.304;11.902;2022-12-18T00:25:07;148.73;;;43.43;;
8927;SDS011;4499;48.304;11.902;2022-12-18T00:27:36;168.37;;;42.30;;
8927;SDS011;4499;48.304;11.902;2022-12-18T00:30:04;124.60;;;42.57;;
8927;SDS011;4499;48.304;11.902;2022-12-18T00:32:33;126.60;;;43.20;;
8927;SDS011;4499;48.304;11.902;2022-12-18T00:35:01;107.93;;;42.07;;
8927;SDS011;4499;48.304;11.902;2022-12-18T00:37:29;111.43;;;42.40;;
8927;SDS011;4499;48.304;11.902;2022-12-18T00:39:59;118.63;;;45.13;;
8927;SDS011;4499;48.304;11.902;2022-12-18T00:42:28;122.43;;;44.97;;
8927;SDS011;4499;48.304;11.902;2022-12-18T00:45:30;117.23;;;43.73;;
8927;SDS011;4499;48.304;11.902;2022-12-18T00:47:58;116.37;;;43.97;;
8927;SDS011;4499;48.304;11.902;2022-12-18T00:50:27;124.07;;;46.63;;
8927;SDS011;4499;48.304;11.902;2022-12-18T00:52:55;121.67;;;43.57;;
8927;SDS011;4499;48.304;11.902;2022-12-18T00:55:24;125.77;;;42.20;;
8927;SDS011;4499;48.304;11.902;2022-12-18T00:57:53;139.30;;;44.37;;
8927;SDS011;4499;48.304;11.902;2022-12-18T01:00:21;122.00;;;42.87;;
8927;SDS011;4499;48.304;11.902;2022-12-18T01:02:49;119.27;;;43.43;;
8927;SDS011;4499;48.304;11.902;2022-12-18T01:05:18;120.77;;;42.63;;
8927;SDS011;4499;48.304;11.902;2022-12-18T01:07:46;117.83;;;42.50;;
8927;SDS011;4499;48.304;11.902;2022-12-18T01:10:16;124.67;;;42.30;;
8927;SDS011;4499;48.304;11.902;2022-12-18T01:12:45;115.67;;;43.43;;
8927;SDS011;4499;48.304;11.902;2022-12-18T01:15:14;105.87;;;40.80;;
8927;SDS011;4499;48.304;11.902;2022-12-18T01:17:42;107.43;;;41.37;;
8927;SDS011;4499;48.304;11.902;2022-12-18T01:20:12;119.33;;;44.53;;
8927;SDS011;4499;48.304;11.902;2022-12-18T01:22:41;112.47;;;44.20;;
8927;SDS011;4499;48.304;11.902;2022-12-18T01:25:09;122.13;;;44.40;;
8927;SDS011;4499;48.304;11.902;2022-12-18T01:27:37;121.57;;;45.07;;
8927;SDS011;4499;48.304;11.902;2022-12-18T01:30:07;117.00;;;44.40;;
8927;SDS011;4499;48.304;11.902;2022-12-18T01:32:36;109.80;;;43.63;;
8927;SDS011;4499;48.304;11.902;2022-12-18T01:35:05;106.53;;;41.67;;
8927;SDS011;4499;48.304;11.902;2022-12-18T01:37:34;107.73;;;42.23;;
8927;SDS011;4499;48.304;11.902;2022-12-18T01:40:02;107.97;;;42.90;;
8927;SDS011;4499;48.304;11.902;2022-12-18T01:42:31;107.20;;;41.83;;
8927;SDS011;4499;48.304;11.902;2022-12-18T01:45:05;114.87;;;43.33;;
8927;SDS011;4499;48.304;11.902;2022-12-18T01:47:49;113.33;;;45.20;;
8927;SDS011;4499;48.304;11.902;2022-12-18T01:50:21;107.63;;;44.03;;
8927;SDS011;4499;48.304;11.902;2022-12-18T01:52:52;104.13;;;42.50;;
8927;SDS011;4499;48.304;11.902;2022-12-18T01:55:23;98.43;;;41.73;;
8927;SDS011;4499;48.304;11.902;2022-12-18T01:57:56;96.47;;;40.27;;
8927;SDS011;4499;48.304;11.902;2022-12-18T02:00:29;92.17;;;38.00;;
8927;SDS011;4499;48.304;11.902;2022-12-18T02:02:57;76.07;;;36.50;;
8927;SDS011;4499;48.304;11.902;2022-12-18T02:05:27;84.90;;;38.83;;
8927;SDS011;4499;48.304;11.902;2022-12-18T02:08:03;83.97;;;37.00;;
8927;SDS011;4499;48.304;11.902;2022-12-18T02:10:40;80.43;;;37.20;;
8927;SDS011;4499;48.304;11.902;2022-12-18T02:13:15;81.23;;;36.90;;
8927;SDS011;4499;48.304;11.902;2022-12-18T02:15:54;81.90;;;36.27;;
8927;SDS011;4499;48.304;11.902;2022-12-18T02:18:28;82.63;;;37.33;;
8927;SDS011;4499;48.304;11.902;2022-12-18T02:21:00;83.40;;;37.57;;
8927;SDS011;4499;48.304;11.902;2022-12-18T02:23:44;82.50;;;37.10;;
8927;SDS011;4499;48.304;11.902;2022-12-18T02:26:19;81.67;;;36.33;;
8927;SDS011;4499;48.304;11.902;2022-12-18T02:28:51;76.73;;;34.80;;
8927;SDS011;4499;48.304;11.902;2022-12-18T02:31:26;75.13;;;35.43;;
8927;SDS011;4499;48.304;11.902;2022-12-18T02:33:58;84.53;;;37.13;;
8927;SDS011;4499;48.304;11.902;2022-12-18T02:36:29;83.03;;;38.03;;
8927;SDS011;4499;48.304;11.902;2022-12-18T02:39:00;86.10;;;37.80;;
8927;SDS011;4499;48.304;11.902;2022-12-18T02:41:36;83.57;;;38.10;;
8927;SDS011;4499;48.304;11.902;2022-12-18T02:44:07;70.97;;;34.67;;
8927;SDS011;4499;48.304;11.902;2022-12-18T02:46:38;75.13;;;36.23;;
8927;SDS011;4499;48.304;11.902;2022-12-18T02:49:11;75.53;;;34.73;;
8927;SDS011;4499;48.304;11.902;2022-12-18T02:51:50;74.17;;;34.13;;
8927;SDS011;4499;48.304;11.902;2022-12-18T02:54:33;69.07;;;34.20;;
8927;SDS011;4499;48.304;11.902;2022-12-18T02:57:13;69.77;;;34.20;;
8927;SDS011;4499;48.304;11.902;2022-12-18T02:59:48;73.03;;;34.77;;
8927;SDS011;4499;48.304;11.902;2022-12-18T03:02:25;67.33;;;34.40;;
8927;SDS011;4499;48.304;11.902;2022-12-18T03:05:01;67.57;;;33.93;;
8927;SDS011;4499;48.304;11.902;2022-12-18T03:07:36;75.70;;;35.23;;
8927;SDS011;4499;48.304;11.902;2022-12-18T03:10:07;75.93;;;35.77;;
8927;SDS011;4499;48.304;11.902;2022-12-18T03:12:41;82.03;;;37.53;;
8927;SDS011;4499;48.304;11.902;2022-12-18T03:15:16;73.60;;;35.40;;
8927;SDS011;4499;48.304;11.902;2022-12-18T03:17:50;84.63;;;37.60;;
8927;SDS011;4499;48.304;11.902;2022-12-18T03:20:22;79.53;;;36.37;;
8927;SDS011;4499;48.304;11.902;2022-12-18T03:22:54;85.47;;;38.13;;
8927;SDS011;4499;48.304;11.902;2022-12-18T03:25:28;84.47;;;37.63;;
8927;SDS011;4499;48.304;11.902;2022-12-18T03:28:01;83.50;;;36.27;;
8927;SDS011;4499;48.304;11.902;2022-12-18T03:30:34;78.33;;;35.27;;
8927;SDS011;4499;48.304;11.902;2022-12-18T03:33:07;74.33;;;35.93;;
8927;SDS011;4499;48.304;11.902;2022-12-18T03:35:38;78.07;;;34.80;;
8927;SDS011;4499;48.304;11.902;2022-12-18T03:38:09;78.97;;;34.53;;
8927;SDS011;4499;48.304;11.902;2022-12-18T03:40:41;82.47;;;36.13;;
8927;SDS011;4499;48.304;11.902;2022-12-18T03:43:20;73.23;;;34.33;;
8927;SDS011;4499;48.304;11.902;2022-12-18T03:46:01;75.97;;;33.50;;
8927;SDS011;4499;48.304;11.902;2022-12-18T03:48:35;79.77;;;36.10;;
8927;SDS011;4499;48.304;11.902;2022-12-18T03:51:09;81.63;;;36.93;;
8927;SDS011;4499;48.304;11.902;2022-12-18T03:53:44;70.27;;;32.07;;
8927;SDS011;4499;48.304;11.902;2022-12-18T03:56:19;75.50;;;35.13;;
8927;SDS011;4499;48.304;11.902;2022-12-18T03:58:51;76.87;;;34.30;;
8927;SDS011;4499;48.304;11.902;2022-12-18T04:01:23;81.70;;;34.53;;
8927;SDS011;4499;48.304;11.902;2022-12-18T04:03:59;84.80;;;35.47;;
8927;SDS011;4499;48.304;11.902;2022-12-18T04:06:28;75.33;;;32.77;;
8927;SDS011;4499;48.304;11.902;2022-12-18T04:08:58;74.40;;;32.63;;
8927;SDS011;4499;48.304;11.902;2022-12-18T04:11:26;78.27;;;34.40;;
8927;SDS011;4499;48.304;11.902;2022-12-18T04:13:56;78.97;;;34.53;;
8927;SDS011;4499;48.304;11.902;2022-12-18T04:16:32;74.67;;;33.20;;
8927;SDS011;4499;48.304;11.902;2022-12-18T04:19:00;80.30;;;33.87;;
8927;SDS011;4499;48.304;11.902;2022-12-18T04:21:28;79.23;;;34.30;;
8927;SDS011;4499;48.304;11.902;2022-12-18T04:23:56;76.33;;;34.77;;
8927;SDS011;4499;48.304;11.902;2022-12-18T04:26:24;81.50;;;34.10;;
8927;SDS011;4499;48.304;11.902;2022-12-18T04:28:57;78.37;;;32.50;;
8927;SDS011;4499;48.304;11.902;2022-12-18T04:31:25;67.57;;;30.47;;
8927;SDS011;4499;48.304;11.902;2022-12-18T04:33:53;70.60;;;32.30;;
8927;SDS011;4499;48.304;11.902;2022-12-18T04:36:21;70.00;;;31.80;;
8927;SDS011;4499;48.304;11.902;2022-12-18T04:38:52;72.97;;;31.63;;
8927;SDS011;4499;48.304;11.902;2022-12-18T04:41:20;72.10;;;31.03;;
8927;SDS011;4499;48.304;11.902;2022-12-18T04:43:48;77.17;;;31.73;;
8927;SDS011;4499;48.304;11.902;2022-12-18T04:46:18;73.77;;;31.93;;
8927;SDS011;4499;48.304;11.902;2022-12-18T04:48:46;78.70;;;33.10;;
8927;SDS011;4499;48.304;11.902;2022-12-18T04:51:14;79.90;;;31.83;;
8927;SDS011;4499;48.304;11.902;2022-12-18T04:53:51;73.93;;;32.23;;
8927;SDS011;4499;48.304;11.902;2022-12-18T04:56:19;78.53;;;32.40;;
8927;SDS011;4499;48.304;11.902;2022-12-18T04:58:47;77.20;;;31.67;;
8927;SDS011;4499;48.304;11.902;2022-12-18T05:01:16;79.90;;;34.93;;
8927;SDS011;4499;48.304;11.902;2022-12-18T05:03:46;83.83;;;34.30;;
8927;SDS011;4499;48.304;11.902;2022-12-18T05:06:14;80.00;;;34.83;;
8927;SDS011;4499;48.304;11.902;2022-12-18T05:08:42;75.50;;;33.53;;
8927;SDS011;4499;48.304;11.902;2022-12-18T05:11:12;77.67;;;33.80;;
8927;SDS011;4499;48.304;11.902;2022-12-18T05:13:44;76.93;;;33.63;;
8927;SDS011;4499;48.304;11.902;2022-12-18T05:16:12;81.37;;;34.10;;
8927;SDS011;4499;48.304;11.902;2022-12-18T05:18:42;78.07;;;33.20;;
8927;SDS011;4499;48.304;11.902;2022-12-18T05:21:11;77.57;;;35.17;;
8927;SDS011;4499;48.304;11.902;2022-12-18T05:23:39;73.60;;;34.53;;
8927;SDS011;4499;48.304;11.902;2022-12-18T05:26:08;76.47;;;34.10;;
8927;SDS011;4499;48.304;11.902;2022-12-18T05:28:40;77.63;;;34.77;;
8927;SDS011;4499;48.304;11.902;2022-12-18T05:31:08;83.53;;;36.37;;
8927;SDS011;4499;48.304;11.902;2022-12-18T05:33:36;83.73;;;35.33;;
8927;SDS011;4499;48.304;11.902;2022-12-18T05:36:07;79.27;;;35.23;;
8927;SDS011;4499;48.304;11.902;2022-12-18T05:38:38;78.33;;;35.33;;
8927;SDS011;4499;48.304;11.902;2022-12-18T05:41:07;83.47;;;35.77;;
8927;SDS011;4499;48.304;11.902;2022-12-18T05:43:36;84.03;;;35.07;;
8927;SDS011;4499;48.304;11.902;2022-12-18T05:46:07;72.50;;;33.17;;
8927;SDS011;4499;48.304;11.902;2022-12-18T05:48:38;76.57;;;35.20;;
8927;SDS011;4499;48.304;11.902;2022-12-18T05:51:08;78.53;;;33.37;;
8927;SDS011;4499;48.304;11.902;2022-12-18T05:53:38;77.57;;;32.63;;
8927;SDS011;4499;48.304;11.902;2022-12-18T05:56:07;75.83;;;33.20;;
8927;SDS011;4499;48.304;11.902;2022-12-18T05:58:37;75.03;;;32.87;;
8927;SDS011;4499;48.304;11.902;2022-12-18T06:01:06;79.73;;;32.77;;
8927;SDS011;4499;48.304;11.902;2022-12-18T06:03:36;74.37;;;32.47;;
8927;SDS011;4499;48.304;11.902;2022-12-18T06:06:13;76.53;;;32.03;;
8927;SDS011;4499;48.304;11.902;2022-12-18T06:08:42;76.17;;;33.17;;
8927;SDS011;4499;48.304;11.902;2022-12-18T06:11:12;76.87;;;33.37;;
8927;SDS011;4499;48.304;11.902;2022-12-18T06:13:43;78.63;;;33.17;;
8927;SDS011;4499;48.304;11.902;2022-12-18T06:16:11;81.10;;;33.03;;
8927;SDS011;4499;48.304;11.902;2022-12-18T06:18:40;84.87;;;34.03;;
8927;SDS011;4499;48.304;11.902;2022-12-18T06:21:08;73.30;;;31.53;;
8927;SDS011;4499;48.304;11.902;2022-12-18T06:23:38;72.77;;;32.23;;
8927;SDS011;4499;48.304;11.902;2022-12-18T06:26:06;78.27;;;34.17;;
8927;SDS011;4499;48.304;11.902;2022-12-18T06:28:35;74.57;;;33.80;;
8927;SDS011;4499;48.304;11.902;2022-12-18T06:31:04;77.70;;;33.37;;
8927;SDS011;4499;48.304;11.902;2022-12-18T06:33:32;73.40;;;33.43;;
8927;SDS011;4499;48.304;11.902;2022-12-18T06:36:02;71.10;;;31.77;;
8927;SDS011;4499;48.304;11.902;2022-12-18T06:38:32;72.60;;;32.93;;
8927;SDS011;4499;48.304;11.902;2022-12-18T06:41:02;69.53;;;30.87;;
8927;SDS011;4499;48.304;11.902;2022-12-18T06:43:34;72.87;;;33.40;;
8927;SDS011;4499;48.304;11.902;2022-12-18T06:46:03;72.60;;;32.73;;
8927;SDS011;4499;48.304;11.902;2022-12-18T06:48:32;69.40;;;32.00;;
8927;SDS011;4499;48.304;11.902;2022-12-18T06:51:00;72.83;;;32.07;;
8927;SDS011;4499;48.304;11.902;2022-12-18T06:53:29;72.87;;;32.33;;
8927;SDS011;4499;48.304;11.902;2022-12-18T06:56:03;67.47;;;32.47;;
8927;SDS011;4499;48.304;11.902;2022-12-18T06:58:36;75.97;;;34.33;;
8927;SDS011;4499;48.304;11.902;2022-12-18T07:01:04;74.17;;;34.23;;
8927;SDS011;4499;48.304;11.902;2022-12-18T07:03:35;73.60;;;33.83;;
8927;SDS011;4499;48.304;11.902;2022-12-18T07:06:04;62.63;;;31.07;;
8927;SDS011;4499;48.304;11.902;2022-12-18T07:08:33;77.60;;;38.03;;
8927;SDS011;4499;48.304;11.902;2022-12-18T07:11:04;71.27;;;32.40;;
8927;SDS011;4499;48.304;11.902;2022-12-18T07:13:32;74.23;;;32.90;;
8927;SDS011;4499;48.304;11.902;2022-12-18T07:16:05;67.93;;;30.40;;
8927;SDS011;4499;48.304;11.902;2022-12-18T07:18:43;64.50;;;30.77;;
8927;SDS011;4499;48.304;11.902;2022-12-18T07:21:12;67.63;;;30.60;;
8927;SDS011;4499;48.304;11.902;2022-12-18T07:23:41;66.70;;;31.90;;
8927;SDS011;4499;48.304;11.902;2022-12-18T07:26:12;65.93;;;32.23;;
8927;SDS011;4499;48.304;11.902;2022-12-18T07:28:42;72.17;;;32.77;;
8927;SDS011;4499;48.304;11.902;2022-12-18T07:31:11;65.37;;;31.83;;
8927;SDS011;4499;48.304;11.902;2022-12-18T07:33:40;64.23;;;31.57;;
8927;SDS011;4499;48.304;11.902;2022-12-18T07:36:09;66.23;;;30.87;;
8927;SDS011;4499;48.304;11.902;2022-12-18T07:38:38;67.90;;;32.57;;
8927;SDS011;4499;48.304;11.902;2022-12-18T07:41:07;66.37;;;31.73;;
8927;SDS011;4499;48.304;11.902;2022-12-18T07:43:38;67.73;;;32.17;;
8927;SDS011;4499;48.304;11.902;2022-12-18T07:46:08;62.70;;;31.83;;
8927;SDS011;4499;48.304;11.902;2022-12-18T07:48:39;63.10;;;30.90;;
8927;SDS011;4499;48.304;11.902;2022-12-18T07:51:10;64.17;;;32.77;;
8927;SDS011;4499;48.304;11.902;2022-12-18T07:53:38;63.53;;;31.47;;
8927;SDS011;4499;48.304;11.902;2022-12-18T07:56:08;62.60;;;30.53;;
8927;SDS011;4499;48.304;11.902;2022-12-18T07:58:58;53.63;;;26.63;;
8927;SDS011;4499;48.304;11.902;2022-12-18T08:01:27;44.80;;;24.30;;
8927;SDS011;4499;48.304;11.902;2022-12-18T08:03:55;48.50;;;25.83;;
8927;SDS011;4499;48.304;11.902;2022-12-18T08:06:24;49.77;;;26.03;;
8927;SDS011;4499;48.304;11.902;2022-12-18T08:08:52;46.20;;;24.90;;
8927;SDS011;4499;48.304;11.902;2022-12-18T08:11:25;49.80;;;25.23;;
8927;SDS011;4499;48.304;11.902;2022-12-18T08:13:54;46.80;;;24.87;;
8927;SDS011;4499;48.304;11.902;2022-12-18T08:16:24;53.13;;;26.33;;
8927;SDS011;4499;48.304;11.902;2022-12-18T08:18:53;46.80;;;24.50;;
8927;SDS011;4499;48.304;11.902;2022-12-18T08:21:22;50.10;;;25.13;;
8927;SDS011;4499;48.304;11.902;2022-12-18T08:23:51;54.33;;;26.33;;
8927;SDS011;4499;48.304;11.902;2022-12-18T08:26:21;50.70;;;25.37;;
8927;SDS011;4499;48.304;11.902;2022-12-18T08:28:50;52.03;;;25.37;;
8927;SDS011;4499;48.304;11.902;2022-12-18T08:31:20;47.07;;;25.57;;
8927;SDS011;4499;48.304;11.902;2022-12-18T08:33:52;54.37;;;26.20;;
8927;SDS011;4499;48.304;11.902;2022-12-18T08:36:21;51.27;;;25.73;;
8927;SDS011;4499;48.304;11.902;2022-12-18T08:38:50;55.60;;;28.27;;
8927;SDS011;4499;48.304;11.902;2022-12-18T08:41:19;51.57;;;26.83;;
8927;SDS011;4499;48.304;11.902;2022-12-18T08:43:48;47.57;;;25.17;;
8927;SDS011;4499;48.304;11.902;2022-12-18T08:46:35;48.60;;;24.40;;
8927;SDS011;4499;48.304;11.902;2022-12-18T08:49:06;42.80;;;22.60;;
8927;SDS011;4499;48.304;11.902;2022-12-18T08:51:36;46.97;;;24.43;;
8927;SDS011;4499;48.304;11.902;2022-12-18T08:54:04;45.03;;;23.63;;
8927;SDS011;4499;48.304;11.902;2022-12-18T08:56:33;40.83;;;23.23;;
8927;SDS011;4499;48.304;11.902;2022-12-18T08:59:01;43.73;;;23.63;;
8927;SDS011;4499;48.304;11.902;2022-12-18T09:01:32;40.47;;;22.90;;
8927;SDS011;4499;48.304;11.902;2022-12-18T09:04:00;42.97;;;23.37;;
8927;SDS011;4499;48.304;11.902;2022-12-18T09:06:33;40.67;;;22.50;;
8927;SDS011;4499;48.304;11.902;2022-12-18T09:09:03;40.67;;;23.10;;
8927;SDS011;4499;48.304;11.902;2022-12-18T09:11:32;41.03;;;22.80;;
8927;SDS011;4499;48.304;11.902;2022-12-18T09:14:01;46.97;;;25.07;;
8927;SDS011;4499;48.304;11.902;2022-12-18T09:16:30;39.00;;;23.17;;
8927;SDS011;4499;48.304;11.902;2022-12-18T09:19:01;43.80;;;24.63;;
8927;SDS011;4499;48.304;11.902;2022-12-18T09:21:39;42.77;;;25.03;;
8927;SDS011;4499;48.304;11.902;2022-12-18T09:24:13;36.27;;;21.80;;
8927;SDS011;4499;48.304;11.902;2022-12-18T09:26:42;38.23;;;23.10;;
8927;SDS011;4499;48.304;11.902;2022-12-18T09:29:13;42.17;;;24.00;;
8927;SDS011;4499;48.304;11.902;2022-12-18T09:31:43;40.03;;;24.07;;
8927;SDS011;4499;48.304;11.902;2022-12-18T09:34:12;39.97;;;23.57;;
8927;SDS011;4499;48.304;11.902;2022-12-18T09:36:42;42.47;;;25.33;;
8927;SDS011;4499;48.304;11.902;2022-12-18T09:39:10;42.73;;;25.20;;
8927;SDS011;4499;48.304;11.902;2022-12-18T09:41:42;41.63;;;23.63;;
8927;SDS011;4499;48.304;11.902;2022-12-18T09:44:17;38.03;;;23.57;;
8927;SDS011;4499;48.304;11.902;2022-12-18T09:46:52;38.27;;;23.73;;
8927;SDS011;4499;48.304;11.902;2022-12-18T09:49:27;43.23;;;24.57;;
8927;SDS011;4499;48.304;11.902;2022-12-18T09:52:02;38.17;;;22.53;;
8927;SDS011;4499;48.304;11.902;2022-12-18T09:54:38;38.30;;;23.27;;
8927;SDS011;4499;48.304;11.902;2022-12-18T09:57:09;38.10;;;22.77;;
8927;SDS011;4499;48.304;11.902;2022-12-18T09:59:40;40.17;;;23.47;;
8927;SDS011;4499;48.304;11.902;2022-12-18T10:02:12;38.07;;;23.97;;
8927;SDS011;4499;48.304;11.902;2022-12-18T10:04:43;37.87;;;23.63;;
8927;SDS011;4499;48.304;11.902;2022-12-18T10:07:18;37.00;;;23.53;;
8927;SDS011;4499;48.304;11.902;2022-12-18T10:09:53;39.07;;;23.83;;
8927;SDS011;4499;48.304;11.902;2022-12-18T10:12:28;38.87;;;24.73;;
8927;SDS011;4499;48.304;11.902;2022-12-18T10:15:04;39.70;;;24.40;;
8927;SDS011;4499;48.304;11.902;2022-12-18T10:17:42;39.77;;;23.93;;
8927;SDS011;4499;48.304;11.902;2022-12-18T10:20:20;37.83;;;24.23;;
8927;SDS011;4499;48.304;11.902;2022-12-18T10:22:57;40.90;;;25.70;;
8927;SDS011;4499;48.304;11.902;2022-12-18T10:25:31;35.27;;;22.63;;
8927;SDS011;4499;48.304;11.902;2022-12-18T10:28:07;37.53;;;24.20;;
8927;SDS011;4499;48.304;11.902;2022-12-18T10:30:40;37.03;;;24.17;;
8927;SDS011;4499;48.304;11.902;2022-12-18T10:33:10;36.30;;;23.73;;
8927;SDS011;4499;48.304;11.902;2022-12-18T10:35:42;37.60;;;24.03;;
8927;SDS011;4499;48.304;11.902;2022-12-18T10:38:22;35.47;;;23.47;;
8927;SDS011;4499;48.304;11.902;2022-12-18T10:40:53;38.57;;;25.40;;
8927;SDS011;4499;48.304;11.902;2022-12-18T10:43:24;38.67;;;25.50;;
8927;SDS011;4499;48.304;11.902;2022-12-18T10:45:58;36.27;;;23.23;;
8927;SDS011;4499;48.304;11.902;2022-12-18T10:48:28;36.13;;;23.53;;
8927;SDS011;4499;48.304;11.902;2022-12-18T10:50:58;36.97;;;24.37;;
8927;SDS011;4499;48.304;11.902;2022-12-18T10:53:40;36.10;;;24.40;;
8927;SDS011;4499;48.304;11.902;2022-12-18T10:56:10;38.33;;;25.07;;
8927;SDS011;4499;48.304;11.902;2022-12-18T10:58:38;37.17;;;24.70;;
8927;SDS011;4499;48.304;11.902;2022-12-18T11:01:09;39.33;;;24.80;;
8927;SDS011;4499;48.304;11.902;2022-12-18T11:03:39;40.87;;;25.50;;
8927;SDS011;4499;48.304;11.902;2022-12-18T11:06:10;39.50;;;25.00;;
8927;SDS011;4499;48.304;11.902;2022-12-18T11:08:42;39.27;;;25.47;;
8927;SDS011;4499;48.304;11.902;2022-12-18T11:11:15;38.33;;;23.93;;
8927;SDS011;4499;48.304;11.902;2022-12-18T11:13:54;38.33;;;25.50;;
8927;SDS011;4499;48.304;11.902;2022-12-18T11:16:27;38.50;;;24.23;;
8927;SDS011;4499;48.304;11.902;2022-12-18T11:19:08;37.63;;;24.77;;
8927;SDS011;4499;48.304;11.902;2022-12-18T11:21:40;40.80;;;25.17;;
8927;SDS011;4499;48.304;11.902;2022-12-18T11:24:17;36.47;;;24.23;;
8927;SDS011;4499;48.304;11.902;2022-12-18T11:26:49;36.40;;;24.80;;
8927;SDS011;4499;48.304;11.902;2022-12-18T11:29:27;40.77;;;26.13;;
8927;SDS011;4499;48.304;11.902;2022-12-18T11:32:13;40.23;;;25.67;;
8927;SDS011;4499;48.304;11.902;2022-12-18T11:35:02;36.60;;;23.37;;
8927;SDS011;4499;48.304;11.902;2022-12-18T11:37:38;32.53;;;21.37;;
8927;SDS011;4499;48.304;11.902;2022-12-18T11:40:13;35.73;;;23.57;;
8927;SDS011;4499;48.304;11.902;2022-12-18T11:42:45;32.67;;;22.27;;
8927;SDS011;4499;48.304;11.902;2022-12-18T11:45:20;33.57;;;22.53;;
8927;SDS011;4499;48.304;11.902;2022-12-18T11:47:54;36.10;;;22.27;;
8927;SDS011;4499;48.304;11.902;2022-12-18T11:50:28;33.73;;;22.67;;
8927;SDS011;4499;48.304;11.902;2022-12-18T11:53:04;32.27;;;22.07;;
8927;SDS011;4499;48.304;11.902;2022-12-18T11:55:39;34.47;;;22.40;;
8927;SDS011;4499;48.304;11.902;2022-12-18T11:58:16;36.03;;;23.37;;
8927;SDS011;4499;48.304;11.902;2022-12-18T12:00:58;33.90;;;22.30;;
8927;SDS011;4499;48.304;11.902;2022-12-18T12:03:45;31.37;;;21.63;;
8927;SDS011;4499;48.304;11.902;2022-12-18T12:06:23;32.13;;;22.07;;
8927;SDS011;4499;48.304;11.902;2022-12-18T12:09:01;33.17;;;22.40;;
8927;SDS011;4499;48.304;11.902;2022-12-18T12:11:41;32.00;;;21.90;;
8927;SDS011;4499;48.304;11.902;2022-12-18T12:14:22;33.60;;;23.20;;
8927;SDS011;4499;48.304;11.902;2022-12-18T12:16:58;33.67;;;21.10;;
8927;SDS011;4499;48.304;11.902;2022-12-18T12:19:36;31.03;;;20.93;;
8927;SDS011;4499;48.304;11.902;2022-12-18T12:22:15;34.33;;;21.93;;
8927;SDS011;4499;48.304;11.902;2022-12-18T12:24:54;32.17;;;21.70;;
8927;SDS011;4499;48.304;11.902;2022-12-18T12:27:33;32.00;;;21.77;;
8927;SDS011;4499;48.304;11.902;2022-12-18T12:30:10;35.87;;;23.20;;
8927;SDS011;4499;48.304;11.902;2022-12-18T12:32:54;34.57;;;23.03;;
8927;SDS011;4499;48.304;11.902;2022-12-18T12:35:35;32.70;;;22.77;;
8927;SDS011;4499;48.304;11.902;2022-12-18T12:38:13;34.37;;;22.77;;
8927;SDS011;4499;48.304;11.902;2022-12-18T12:40:52;31.37;;;22.00;;
8927;SDS011;4499;48.304;11.902;2022-12-18T12:43:33;32.30;;;21.23;;
8927;SDS011;4499;48.304;11.902;2022-12-18T12:46:10;35.67;;;22.77;;
8927;SDS011;4499;48.304;11.902;2022-12-18T12:48:42;32.50;;;22.43;;
8927;SDS011;4499;48.304;11.902;2022-12-18T12:51:16;34.13;;;23.40;;
8927;SDS011;4499;48.304;11.902;2022-12-18T12:53:47;36.00;;;24.37;;
8927;SDS011;4499;48.304;11.902;2022-12-18T12:56:16;38.43;;;23.80;;
8927;SDS011;4499;48.304;11.902;2022-12-18T12:58:49;36.40;;;23.27;;
8927;SDS011;4499;48.304;11.902;2022-12-18T13:01:28;34.33;;;22.73;;
8927;SDS011;4499;48.304;11.902;2022-12-18T13:04:05;35.87;;;23.20;;
8927;SDS011;4499;48.304;11.902;2022-12-18T13:06:45;34.77;;;22.20;;
8927;SDS011;4499;48.304;11.902;2022-12-18T13:09:19;34.47;;;22.60;;
8927;SDS011;4499;48.304;11.902;2022-12-18T13:11:48;38.57;;;25.00;;
8927;SDS011;4499;48.304;11.902;2022-12-18T13:14:35;36.67;;;23.33;;
8927;SDS011;4499;48.304;11.902;2022-12-18T13:17:15;38.63;;;23.97;;
8927;SDS011;4499;48.304;11.902;2022-12-18T13:19:45;37.53;;;24.10;;
8927;SDS011;4499;48.304;11.902;2022-12-18T13:22:21;36.93;;;23.97;;
8927;SDS011;4499;48.304;11.902;2022-12-18T13:24:51;37.37;;;23.97;;
8927;SDS011;4499;48.304;11.902;2022-12-18T13:30:42;36.77;;;23.77;;
8927;SDS011;4499;48.304;11.902;2022-12-18T13:33:38;38.23;;;25.13;;
8927;SDS011;4499;48.304;11.902;2022-12-18T13:36:31;35.33;;;23.57;;
8927;SDS011;4499;48.304;11.902;2022-12-18T13:39:10;34.60;;;22.77;;
8927;SDS011;4499;48.304;11.902;2022-12-18T13:45:35;42.60;;;26.13;;
8927;SDS011;4499;48.304;11.902;2022-12-18T13:48:21;42.47;;;27.33;;
8927;SDS011;4499;48.304;11.902;2022-12-18T13:50:56;42.13;;;26.50;;
8927;SDS011;4499;48.304;11.902;2022-12-18T13:53:28;37.17;;;24.47;;
8927;SDS011;4499;48.304;11.902;2022-12-18T13:56:00;40.33;;;25.20;;
8927;SDS011;4499;48.304;11.902;2022-12-18T13:58:30;41.60;;;25.60;;
8927;SDS011;4499;48.304;11.902;2022-12-18T14:01:00;40.40;;;26.00;;
8927;SDS011;4499;48.304;11.902;2022-12-18T14:03:31;43.53;;;26.30;;
8927;SDS011;4499;48.304;11.902;2022-12-18T14:06:00;42.93;;;27.00;;
8927;SDS011;4499;48.304;11.902;2022-12-18T14:08:36;42.20;;;26.53;;
8927;SDS011;4499;48.304;11.902;2022-12-18T14:11:07;39.83;;;25.27;;
8927;SDS011;4499;48.304;11.902;2022-12-18T14:13:48;40.00;;;25.00;;
8927;SDS011;4499;48.304;11.902;2022-12-18T14:16:18;42.70;;;26.13;;
8927;SDS011;4499;48.304;11.902;2022-12-18T14:18:47;43.23;;;26.60;;
8927;SDS011;4499;48.304;11.902;2022-12-18T14:21:23;41.53;;;26.13;;
8927;SDS011;4499;48.304;11.902;2022-12-18T14:24:03;43.03;;;25.97;;
8927;SDS011;4499;48.304;11.902;2022-12-18T14:26:45;47.43;;;27.10;;
8927;SDS011;4499;48.304;11.902;2022-12-18T14:29:20;43.77;;;27.10;;
8927;SDS011;4499;48.304;11.902;2022-12-18T14:32:09;43.43;;;26.37;;
8927;SDS011;4499;48.304;11.902;2022-12-18T14:34:43;41.50;;;26.53;;
8927;SDS011;4499;48.304;11.902;2022-12-18T14:37:13;38.10;;;24.10;;
8927;SDS011;4499;48.304;11.902;2022-12-18T14:39:53;38.37;;;24.37;;
8927;SDS011;4499;48.304;11.902;2022-12-18T14:42:22;43.83;;;26.20;;
8927;SDS011;4499;48.304;11.902;2022-12-18T14:48:11;41.33;;;24.40;;
8927;SDS011;4499;48.304;11.902;2022-12-18T14:50:55;44.00;;;26.00;;
8927;SDS011;4499;48.304;11.902;2022-12-18T14:53:35;42.57;;;25.00;;
8927;SDS011;4499;48.304;11.902;2022-12-18T14:56:13;42.60;;;25.63;;
8927;SDS011;4499;48.304;11.902;2022-12-18T14:58:47;41.80;;;25.77;;
8927;SDS011;4499;48.304;11.902;2022-12-18T15:01:20;45.47;;;26.13;;
8927;SDS011;4499;48.304;11.902;2022-12-18T15:03:53;45.90;;;25.33;;
8927;SDS011;4499;48.304;11.902;2022-12-18T15:06:24;45.97;;;27.07;;
8927;SDS011;4499;48.304;11.902;2022-12-18T15:08:56;48.53;;;27.47;;
8927;SDS011;4499;48.304;11.902;2022-12-18T15:11:30;47.57;;;28.23;;
8927;SDS011;4499;48.304;11.902;2022-12-18T15:17:06;44.47;;;27.07;;